• Join FlightAware (Why Join?)
  • Login
  • US Flag 
12:51PM EDT


 

Airport Tracker/Info


-or-


 

Live Flight TrackerFlight Track Log ✈ EJM826 ✈ 22-Oct-2013 ✈ KIAD - KCXO

Flight Track Log - Related Links

Times and Time Zones

All times are in EDT time to prevent confusion due to time zone crossing. See the EJM826 flight status page for this flight to view local times or setup timezone preferences in your user account.

Time Position Orientation Groundspeed Altitude Reporting Facility
EDT Latitude Longitude Course Direction KTS MPH feet Rate Location/Type
07:07PM 38.9333 -77.5000 238° Southwest 179 206 1,500  Level Potomac TRACON
07:08PM 38.9000 -77.5667 237° Southwest 217 250 4,800 2,760 Climbing Potomac TRACON
07:09PM 38.8731 -77.6314 242° Southwest 233 268 6,900 1,680 Climbing Washington Center
07:10PM 38.8122 -77.6669 204° Southwest 270 311 7,900 1,860 Climbing Washington Center
07:11PM 38.7411 -77.6811 189° South 296 341 10,600 2,940 Climbing Washington Center
07:12PM 38.6594 -77.6972 189° South 310 357 13,800 2,640 Climbing Washington Center
07:13PM 38.7149 -78.0994 238° Southwest  Level Estimated
07:13PM 38.5756 -77.7161 190° South 310 357 16,000  Level Washington Center
07:14PM 38.4958 -77.7483 198° South 310 357 18,400 2,160 Climbing Washington Center
07:15PM 38.4525 -77.8347 237° Southwest 288 331 20,300 2,040 Climbing Washington Center
07:16PM 38.4094 -77.9156 236° Southwest 288 331 22,500 1,800 Climbing Washington Center
07:17PM 38.3575 -78.0117 235° Southwest 294 338 24,000 1,380 Climbing Washington Center
07:18PM 38.3117 -78.1003 237° Southwest 299 344 25,400 1,260 Climbing Washington Center
07:19PM 38.2661 -78.1861 236° Southwest 299 344 26,600 1,200 Climbing Washington Center
07:20PM 38.2183 -78.2769 236° Southwest 299 344 27,900 1,260 Climbing Washington Center
07:21PM 38.1725 -78.3625 236° Southwest 299 344 29,200 1,020 Climbing Washington Center
07:22PM 38.1267 -78.4478 236° Southwest 299 344 30,000 780 Climbing Washington Center
07:23PM 38.1019 -78.5314 249° West 288 331 30,800 480 Climbing Washington Center
07:24PM 38.0703 -78.6250 247° West 288 331 31,000 480 Climbing Washington Center
07:25PM 38.0342 -78.7289 246° West 293 337 31,800 900 Climbing Washington Center
07:26PM 38.0025 -78.8253 247° West 293 337 32,900 960 Climbing Washington Center
07:27PM 37.9708 -78.9161 246° West 288 331 33,800 900 Climbing Washington Center
07:28PM 37.9392 -79.0069 246° West 288 331 34,800 1,080 Climbing Washington Center
07:29PM 37.9017 -79.0789 237° Southwest 288 331 36,000 600 Climbing Washington Center
07:30PM 37.8392 -79.1442 220° Southwest 283 326 36,000 420 Level Washington Center
07:31PM 37.7683 -79.2092 216° Southwest 296 341 36,900 840 Climbing Washington Center
07:32PM 37.7117 -79.2906 229° Southwest 315 362 37,700 840 Climbing Washington Center
07:33PM 37.6647 -79.3931 240° Southwest 315 362 38,700 600 Climbing Washington Center
07:34PM 37.6264 -79.4778 240° Southwest 309 356 39,000 120 Climbing Washington Center
07:35PM 37.5808 -79.5933 244° Southwest 323 372 39,000  Level Washington Center
07:36PM 37.5381 -79.6881 240° Southwest 335 386 39,000  Level Washington Center
07:37PM 37.4861 -79.8056 241° Southwest 346 398 39,000 180 Level Washington Center
07:38PM 37.4358 -79.9233 242° Southwest 374 430 39,400 420 Climbing Washington Center
07:40PM 37.3217 -80.1767 241° Southwest 359 413 40,600 480 Climbing Atlanta Center
07:41PM 37.2711 -80.2939 242° Southwest 359 413 41,200 540 Climbing Atlanta Center
07:42PM 37.2222 -80.4003 240° Southwest 359 413 41,700 480 Climbing Atlanta Center
07:43PM 37.1772 -80.5067 242° Southwest 359 413 42,200 420 Climbing Atlanta Center
07:44PM 37.1281 -80.6131 240° Southwest 359 413 42,600 360 Climbing Atlanta Center
07:45PM 37.0850 -80.7111 241° Southwest 359 413 43,000 180 Climbing Atlanta Center
07:46PM 37.0442 -80.8247 246° West 359 413 43,000  Level Atlanta Center
07:47PM 37.0033 -80.9408 246° West 359 413 43,000  Level Atlanta Center
07:48PM 36.9606 -81.0592 246° West 365 420 43,000  Level Atlanta Center
07:49PM 36.9156 -81.1881 246° West 370 426 43,000  Level Atlanta Center
07:50PM 36.8725 -81.3039 245° Southwest 370 426 43,000  Level Atlanta Center
07:51PM 36.8292 -81.4222 245° Southwest 370 426 43,000  Level Atlanta Center
07:52PM 36.7856 -81.5375 245° Southwest 370 426 43,000  Level Atlanta Center
07:53PM 36.7544 -81.6422 250° West 358 412 43,000  Level Atlanta Center
07:54PM 36.7067 -81.7731 246° West 358 412 43,000  Level Atlanta Center
07:55PM 36.6631 -81.8881 245° Southwest 368 423 43,000  Level Atlanta Center
07:56PM 36.6192 -82.0058 245° Southwest 368 423 43,000  Level Atlanta Center
07:57PM 36.5772 -82.1231 246° West 373 429 43,000  Level Atlanta Center
07:58PM 36.5311 -82.2406 244° Southwest 373 429 43,000  Level Atlanta Center
07:59PM 36.4847 -82.3553 243° Southwest 378 435 43,000  Level Atlanta Center
08:00PM 36.4342 -82.4722 242° Southwest 378 435 43,000  Level Atlanta Center
08:01PM 36.3875 -82.5867 243° Southwest 378 435 43,000  Level Atlanta Center
08:02PM 36.3408 -82.7036 244° Southwest 378 435 43,000  Level Atlanta Center
08:03PM 36.2922 -82.8203 243° Southwest 378 435 43,000  Level Atlanta Center
08:04PM 36.2453 -82.9342 243° Southwest 373 429 43,000  Level Atlanta Center
08:05PM 36.1981 -83.0481 243° Southwest 373 429 43,000  Level Atlanta Center
08:06PM 36.1489 -83.1619 242° Southwest 373 429 43,000  Level Atlanta Center
08:07PM 36.0997 -83.2781 242° Southwest 378 435 43,000  Level Atlanta Center
08:08PM 36.0525 -83.3917 243° Southwest 378 435 43,000  Level Atlanta Center
08:09PM 36.0069 -83.4972 242° Southwest 378 435 43,000  Level Atlanta Center
08:10PM 35.9617 -83.6078 243° Southwest 373 429 43,000  Level Atlanta Center
08:11PM 35.9119 -83.7233 242° Southwest 373 429 43,000  Level Atlanta Center
08:12PM 35.8642 -83.8364 242° Southwest 373 429 43,000  Level Atlanta Center
08:13PM 35.8142 -83.9492 241° Southwest 373 429 43,000  Level Atlanta Center
08:14PM 35.7642 -84.0644 242° Southwest 373 429 43,000  Level Atlanta Center
08:15PM 35.7161 -84.1769 242° Southwest 373 429 43,000  Level Atlanta Center
08:16PM 35.6681 -84.2867 242° Southwest 373 429 43,000  Level Atlanta Center
08:17PM 35.6175 -84.3989 241° Southwest 373 429 43,000  Level Atlanta Center
08:18PM 35.5692 -84.5086 242° Southwest 373 429 43,000  Level Atlanta Center
08:19PM 35.5208 -84.6231 243° Southwest 373 429 43,000  Level Atlanta Center
08:20PM 35.4744 -84.7325 243° Southwest 373 429 43,000  Level Atlanta Center
08:21PM 35.4236 -84.8442 241° Southwest 373 429 43,000  Level Atlanta Center
08:22PM 35.3686 -84.9633 241° Southwest 373 429 43,000  Level Atlanta Center
08:23PM 35.3197 -85.0747 242° Southwest 373 429 43,000  Level Atlanta Center
08:24PM 35.2728 -85.1836 242° Southwest 373 429 43,000  Level Atlanta Center
08:25PM 35.2236 -85.2922 241° Southwest 373 429 43,000  Level Atlanta Center
08:27PM 35.1686 -85.4147 241° Southwest 363 418 43,000  Level Memphis Center
08:28PM 35.1194 -85.5214 241° Southwest 361 415 43,000  Level Memphis Center
08:28PM 35.0803 -85.6150 243° Southwest 373 429 43,000  Level Atlanta Center
08:29PM 35.0308 -85.7206 240° Southwest 368 423 43,000  Level Atlanta Center
08:30PM 34.9833 -85.8233 241° Southwest 368 423 43,000  Level Atlanta Center
08:31PM 34.9339 -85.9289 240° Southwest 368 423 43,000  Level Atlanta Center
08:32PM 34.8947 -86.0217 243° Southwest 356 410 43,000  Level Atlanta Center
08:33PM 34.8450 -86.1267 240° Southwest 351 404 43,000  Level Atlanta Center
08:34PM 34.7953 -86.2317 240° Southwest 351 404 43,000  Level Atlanta Center
08:35PM 34.7475 -86.3367 241° Southwest 351 404 43,000  Level Atlanta Center
08:36PM 34.6975 -86.4414 240° Southwest 356 410 43,000  Level Atlanta Center
08:37PM 34.6494 -86.5461 241° Southwest 356 410 43,000  Level Atlanta Center
08:38PM 34.5992 -86.6506 240° Southwest 356 410 43,000  Level Atlanta Center
08:41PM 34.4769 -86.9119 240° Southwest 356 410 43,000  Level Memphis Center
08:42PM 34.4272 -87.0183 240° Southwest 358 412 43,000  Level Memphis Center
08:43PM 34.3683 -87.1408 240° Southwest 358 412 43,000  Level Memphis Center
08:44PM 34.3208 -87.2414 240° Southwest 360 414 43,000  Level Memphis Center
08:45PM 34.2706 -87.3481 240° Southwest 362 417 43,000  Level Memphis Center
08:46PM 34.2189 -87.4536 239° Southwest 362 417 43,000  Level Memphis Center
08:47PM 34.1681 -87.5600 240° Southwest 362 417 43,000  Level Memphis Center
08:48PM 34.1181 -87.6656 240° Southwest 360 414 43,000  Level Memphis Center
08:49PM 34.0675 -87.7706 240° Southwest 359 413 43,000  Level Memphis Center
08:50PM 34.0167 -87.8753 240° Southwest 359 413 43,000  Level Memphis Center
08:51PM 33.9578 -87.9981 240° Southwest 359 413 43,000  Level Memphis Center
08:52PM 33.9061 -88.1031 239° Southwest 360 414 43,000  Level Memphis Center
08:53PM 33.8558 -88.2050 239° Southwest 361 415 43,000  Level Memphis Center
08:54PM 33.8053 -88.3083 240° Southwest 360 414 43,000  Level Memphis Center
08:55PM 33.7544 -88.4119 239° Southwest 360 414 43,000  Level Memphis Center
08:56PM 33.7036 -88.5164 240° Southwest 362 417 43,000  Level Memphis Center
08:57PM 33.6525 -88.6203 239° Southwest 363 418 43,000  Level Memphis Center
08:58PM 33.6008 -88.7244 239° Southwest 363 418 43,000  Level Memphis Center
08:59PM 33.5497 -88.8278 239° Southwest 362 417 43,000  Level Memphis Center
09:00PM 33.4869 -88.9506 239° Southwest 360 414 43,000  Level Memphis Center
09:01PM 33.4350 -89.0550 239° Southwest 365 420 43,000  Level Memphis Center
09:02PM 33.3842 -89.1583 240° Southwest 364 419 43,000  Level Memphis Center
09:04PM 33.3322 -89.2606 239° Southwest 363 418 43,000  Level Memphis Center
09:05PM 33.2800 -89.3633 239° Southwest 363 418 43,000  Level Memphis Center
09:06PM 33.2289 -89.4653 239° Southwest 362 417 43,000  Level Memphis Center
09:07PM 33.1769 -89.5686 239° Southwest 364 419 43,000  Level Memphis Center
09:08PM 33.1156 -89.6908 239° Southwest 363 418 43,000  Level Memphis Center
09:09PM 33.0639 -89.7936 239° Southwest 365 420 43,000  Level Memphis Center
09:10PM 33.0058 -89.8978 236° Southwest 362 417 43,000  Level Memphis Center
09:11PM 32.9592 -89.9956 240° Southwest 367 422 43,000  Level Memphis Center
09:12PM 32.8969 -90.1183 239° Southwest 368 423 43,000  Level Memphis Center
09:13PM 32.8436 -90.2194 238° Southwest 365 420 43,000  Level Memphis Center
09:14PM 32.7908 -90.3214 238° Southwest 365 420 43,000  Level Memphis Center
09:15PM 32.7375 -90.4242 238° Southwest 367 422 43,000  Level Memphis Center
09:16PM 32.6839 -90.5275 238° Southwest 369 425 43,000  Level Memphis Center
09:17PM 32.6292 -90.6300 238° Southwest 370 426 43,000  Level Memphis Center
09:18PM 32.5756 -90.7347 239° Southwest 372 428 43,000  Level Memphis Center
09:19PM 32.5103 -90.8583 238° Southwest 373 429 43,000  Level Memphis Center
09:20PM 32.4556 -90.9617 238° Southwest 373 429 43,000  Level Memphis Center
09:21PM 32.4003 -91.0653 238° Southwest 374 430 43,000  Level Memphis Center
09:22PM 32.3644 -91.1381 240° Southwest 371 427 43,000  Level Houston Center
09:23PM 32.3086 -91.2419 238° Southwest 373 429 43,000  Level Houston Center
09:24PM 32.2544 -91.3467 239° Southwest 373 429 43,000  Level Houston Center
09:25PM 32.1978 -91.4494 237° Southwest 374 430 43,000  Level Houston Center
09:26PM 32.1431 -91.5550 239° Southwest 376 433 43,000  Level Houston Center
09:27PM 32.0867 -91.6583 237° Southwest 377 434 43,000  Level Houston Center
09:28PM 32.0308 -91.7625 238° Southwest 375 432 43,000  Level Houston Center
09:29PM 31.9750 -91.8653 237° Southwest 375 432 43,000  Level Houston Center
09:30PM 31.9200 -91.9683 238° Southwest 373 429 43,000  Level Houston Center
09:31PM 31.8594 -92.0806 238° Southwest 374 430 43,000  Level Houston Center
09:32PM 31.8031 -92.1831 237° Southwest 374 430 43,000  Level Houston Center
09:33PM 31.7464 -92.2869 237° Southwest 378 435 43,000  Level Houston Center
09:34PM 31.6908 -92.3897 238° Southwest 376 433 43,000  Level Houston Center
09:35PM 31.6353 -92.4911 237° Southwest 370 426 43,000  Level Houston Center
09:36PM 31.5697 -92.6125 238° Southwest 368 423 43,000  Level Houston Center
09:37PM 31.5144 -92.7125 237° Southwest 368 423 43,000  Level Houston Center
09:38PM 31.4594 -92.8128 237° Southwest 367 422 43,000  Level Houston Center
09:39PM 31.4039 -92.9122 237° Southwest 366 421 43,000  Level Houston Center
09:40PM 31.3489 -93.0114 237° Southwest 364 419 43,000 -240 Level Houston Center
09:41PM 31.2933 -93.1122 237° Southwest 368 423 42,600 -1,680 Descending Houston Center
09:42PM 31.2367 -93.2125 237° Southwest 370 426 39,700 -2,580 Descending Houston Center
09:43PM 31.1811 -93.3108 237° Southwest 365 420 37,400 -2,280 Descending Houston Center
09:44PM 31.1244 -93.4117 237° Southwest 371 427 35,100 -2,280 Descending Houston Center
09:45PM 31.0672 -93.5136 237° Southwest 376 433 32,800 -2,580 Descending Houston Center
09:46PM 30.9958 -93.6394 237° Southwest 386 444 29,900 -2,700 Descending Houston Center
09:47PM 30.9342 -93.7494 237° Southwest 402 463 27,400 -2,460 Descending Houston Center
09:48PM 30.8747 -93.8586 238° Southwest 403 464 24,900 -2,400 Descending Houston Center
09:49PM 30.8158 -93.9597 236° Southwest 388 447 22,600 -2,460 Descending Houston Center
09:50PM 30.7536 -94.0708 237° Southwest 407 468 20,000 -2,640 Descending Houston Center
09:51PM 30.6831 -94.1936 236° Southwest 453 521 17,300 -2,820 Descending Houston Center
09:52PM 30.6208 -94.3017 236° Southwest 458 527 14,900 -2,700 Descending Houston Center
09:52PM 30.6139 -94.3142 237° Southwest 452 520 14,600 -2,280 Descending Houston Center
09:53PM 30.5517 -94.4219 236° Southwest 409 471 12,100 -2,700 Descending Houston Center
09:53PM 30.5350 -94.4536 239° Southwest 377 434 11,400 -2,460 Descending Houston Center
09:54PM 30.5042 -94.5272 244° Southwest 345 397 9,600 -2,460 Descending Houston Center
09:54PM 30.5064 -94.5497 277° West 311 358 8,900 -2,280 Descending Houston Center
09:55PM 30.5269 -94.6203 289° West 304 350 7,300 -2,100 Descending Houston Center
09:55PM 30.5281 -94.6414 274° West 287 330 6,800 -1,320 Descending Houston Center
09:56PM 30.5256 -94.7114 268° West 285 328 6,000 -900 Descending Houston Center
09:56PM 30.5183 -94.7375 252° West 279 321 5,900  Descending Houston Center
09:57PM 30.5147 -94.8017 266° West 281 323 6,000 -180 Climbing Houston Center
09:58PM 30.5078 -94.8478 260° West 286 329 5,700 -720 Descending Houston Center
09:58PM 30.4997 -94.9192 263° West 286 329 5,200 -600 Descending Houston Center
09:59PM 30.4878 -95.0153 262° West 288 331 4,600 -600 Descending Houston Center
10:00PM 30.4775 -95.1064 263° West 278 320 4,100 -480 Descending Houston Center
10:01PM 30.4722 -95.1647 264° West 276 318 3,800 -540 Descending Houston Center
10:01PM 30.4667 -95.1950 258° West 270 311 3,600 -840 Descending Houston Center
10:02PM 30.4581 -95.2650 262° West 265 305 3,000 -780 Descending Houston Center
10:02PM 30.4567 -95.2689 247° West 243 280 2,900 -900 Descending Houston Center
10:03PM 30.4517 -95.3386 265° West 235 270 2,100 -840 Descending Houston Center
10:04PM 30.4500 -95.3544 263° West 211 243 1,900 -540 Descending Houston Center
10:04PM 30.4450 -95.3989 263° West 196 226 1,600 -600 Descending Houston Center
10:04PM 30.4356 -95.4047 208° Southwest 173 199 1,400 -540 Descending Houston Center
10:05PM 30.4183 -95.4319 234° Southwest 181 208 1,100 -540 Descending Houston Center
10:05PM 30.4047 -95.4353 192° South 154 177 900 -540 Descending Houston Center
10:06PM 30.3658 -95.4228 164° South 136 157 500 -420 Descending Houston Center
10:08PM 30.3524 -95.4145 152° Southeast  Level Estimated
10:15PM 30.3524 -95.4145 60° Northeast  Level Estimated